sensor_id;sensor_type;location;lat;lon;timestamp;pressure;altitude;pressure_sealevel;temperature;humidity
59417;BME280;45222;52.458;20.914;2023-03-29T00:01:11;101144.23;;;-4.30;68.84
59417;BME280;45222;52.458;20.914;2023-03-29T00:04:57;101143.95;;;-4.35;68.73
59417;BME280;45222;52.458;20.914;2023-03-29T00:08:45;101144.52;;;-4.39;69.05
59417;BME280;45222;52.458;20.914;2023-03-29T00:12:31;101146.48;;;-4.44;69.03
59417;BME280;45222;52.458;20.914;2023-03-29T00:16:17;101157.48;;;-4.49;69.02
59417;BME280;45222;52.458;20.914;2023-03-29T00:20:02;101158.95;;;-4.53;69.18
59417;BME280;45222;52.458;20.914;2023-03-29T00:23:50;101156.23;;;-4.56;69.06
59417;BME280;45222;52.458;20.914;2023-03-29T00:27:35;101155.00;;;-4.57;68.99
59417;BME280;45222;52.458;20.914;2023-03-29T00:31:21;101157.93;;;-4.59;69.01
59417;BME280;45222;52.458;20.914;2023-03-29T00:35:07;101155.98;;;-4.60;69.06
59417;BME280;45222;52.458;20.914;2023-03-29T00:38:54;101160.98;;;-4.61;69.06
59417;BME280;45222;52.458;20.914;2023-03-29T00:42:43;101159.55;;;-4.63;69.07
59417;BME280;45222;52.458;20.914;2023-03-29T00:46:28;101160.86;;;-4.65;69.10
59417;BME280;45222;52.458;20.914;2023-03-29T00:50:20;101154.21;;;-4.68;69.01
59417;BME280;45222;52.458;20.914;2023-03-29T00:54:14;101153.02;;;-4.67;68.77
59417;BME280;45222;52.458;20.914;2023-03-29T00:58:02;101155.48;;;-4.65;68.85
59417;BME280;45222;52.458;20.914;2023-03-29T01:01:50;101151.56;;;-4.56;69.64
59417;BME280;45222;52.458;20.914;2023-03-29T01:05:39;101152.75;;;-4.50;69.55
59417;BME280;45222;52.458;20.914;2023-03-29T01:09:26;101153.48;;;-4.42;69.61
59417;BME280;45222;52.458;20.914;2023-03-29T01:13:18;101152.13;;;-4.41;69.17
59417;BME280;45222;52.458;20.914;2023-03-29T01:17:05;101154.20;;;-4.41;69.18
59417;BME280;45222;52.458;20.914;2023-03-29T01:21:01;101158.48;;;-4.43;69.10
59417;BME280;45222;52.458;20.914;2023-03-29T01:25:01;101159.63;;;-4.46;68.97
59417;BME280;45222;52.458;20.914;2023-03-29T01:28:54;101158.40;;;-4.47;68.79
59417;BME280;45222;52.458;20.914;2023-03-29T01:32:46;101158.09;;;-4.52;68.91
59417;BME280;45222;52.458;20.914;2023-03-29T01:36:38;101159.50;;;-4.58;68.96
59417;BME280;45222;52.458;20.914;2023-03-29T01:40:27;101156.63;;;-4.62;68.91
59417;BME280;45222;52.458;20.914;2023-03-29T01:44:14;101157.80;;;-4.63;68.79
59417;BME280;45222;52.458;20.914;2023-03-29T01:48:07;101155.58;;;-4.69;68.88
59417;BME280;45222;52.458;20.914;2023-03-29T01:51:58;101153.69;;;-4.75;68.91
59417;BME280;45222;52.458;20.914;2023-03-29T01:55:48;101152.35;;;-4.79;68.96
59417;BME280;45222;52.458;20.914;2023-03-29T01:59:37;101157.44;;;-4.83;69.01
59417;BME280;45222;52.458;20.914;2023-03-29T02:03:26;101159.14;;;-4.85;69.04
59417;BME280;45222;52.458;20.914;2023-03-29T02:07:16;101159.18;;;-4.90;69.11
59417;BME280;45222;52.458;20.914;2023-03-29T02:11:01;101164.60;;;-4.94;69.36
59417;BME280;45222;52.458;20.914;2023-03-29T02:14:48;101168.30;;;-4.99;69.44
59417;BME280;45222;52.458;20.914;2023-03-29T02:18:34;101168.29;;;-4.99;69.32
59417;BME280;45222;52.458;20.914;2023-03-29T02:22:23;101168.81;;;-4.99;69.55
59417;BME280;45222;52.458;20.914;2023-03-29T02:26:11;101169.52;;;-4.92;70.36
59417;BME280;45222;52.458;20.914;2023-03-29T02:29:58;101172.70;;;-4.83;70.74
59417;BME280;45222;52.458;20.914;2023-03-29T02:33:47;101168.83;;;-4.79;70.89
59417;BME280;45222;52.458;20.914;2023-03-29T02:37:35;101169.04;;;-4.78;70.89
59417;BME280;45222;52.458;20.914;2023-03-29T02:41:24;101172.17;;;-4.77;70.87
59417;BME280;45222;52.458;20.914;2023-03-29T02:45:13;101168.48;;;-4.80;70.59
59417;BME280;45222;52.458;20.914;2023-03-29T02:49:00;101170.38;;;-4.87;70.37
59417;BME280;45222;52.458;20.914;2023-03-29T02:52:50;101171.13;;;-4.97;70.66
59417;BME280;45222;52.458;20.914;2023-03-29T02:56:44;101168.92;;;-5.01;70.45
59417;BME280;45222;52.458;20.914;2023-03-29T03:00:29;101167.66;;;-5.09;70.99
59417;BME280;45222;52.458;20.914;2023-03-29T03:04:15;101173.77;;;-5.14;71.19
59417;BME280;45222;52.458;20.914;2023-03-29T03:08:00;101180.81;;;-5.17;70.92
59417;BME280;45222;52.458;20.914;2023-03-29T03:11:46;101178.08;;;-5.21;71.44
59417;BME280;45222;52.458;20.914;2023-03-29T03:15:31;101177.36;;;-5.28;71.43
59417;BME280;45222;52.458;20.914;2023-03-29T03:19:19;101179.98;;;-5.40;71.58
59417;BME280;45222;52.458;20.914;2023-03-29T03:23:04;101188.17;;;-5.50;71.68
59417;BME280;45222;52.458;20.914;2023-03-29T03:26:50;101191.14;;;-5.55;71.42
59417;BME280;45222;52.458;20.914;2023-03-29T03:30:35;101194.69;;;-5.58;71.62
59417;BME280;45222;52.458;20.914;2023-03-29T03:34:21;101197.29;;;-5.57;71.54
59417;BME280;45222;52.458;20.914;2023-03-29T03:38:06;101194.83;;;-5.53;72.00
59417;BME280;45222;52.458;20.914;2023-03-29T03:41:51;101198.88;;;-5.45;72.18
59417;BME280;45222;52.458;20.914;2023-03-29T03:45:37;101202.11;;;-5.41;72.33
59417;BME280;45222;52.458;20.914;2023-03-29T03:49:22;101203.86;;;-5.40;72.46
59417;BME280;45222;52.458;20.914;2023-03-29T03:53:07;101204.88;;;-5.41;72.38
59417;BME280;45222;52.458;20.914;2023-03-29T03:56:52;101204.08;;;-5.45;72.37
59417;BME280;45222;52.458;20.914;2023-03-29T04:00:38;101208.73;;;-5.52;72.45
59417;BME280;45222;52.458;20.914;2023-03-29T04:04:23;101214.55;;;-5.59;72.80
59417;BME280;45222;52.458;20.914;2023-03-29T04:08:09;101208.53;;;-5.69;72.90
59417;BME280;45222;52.458;20.914;2023-03-29T04:11:54;101207.23;;;-5.78;72.96
59417;BME280;45222;52.458;20.914;2023-03-29T04:15:39;101209.73;;;-5.86;73.05
59417;BME280;45222;52.458;20.914;2023-03-29T04:19:24;101210.36;;;-5.94;72.91
59417;BME280;45222;52.458;20.914;2023-03-29T04:23:09;101213.63;;;-6.00;73.04
59417;BME280;45222;52.458;20.914;2023-03-29T04:26:54;101215.52;;;-6.06;73.22
59417;BME280;45222;52.458;20.914;2023-03-29T04:30:40;101217.41;;;-6.07;72.97
59417;BME280;45222;52.458;20.914;2023-03-29T04:34:25;101214.61;;;-6.08;73.19
59417;BME280;45222;52.458;20.914;2023-03-29T04:38:10;101218.20;;;-6.03;73.30
59417;BME280;45222;52.458;20.914;2023-03-29T04:41:55;101220.52;;;-5.90;73.99
59417;BME280;45222;52.458;20.914;2023-03-29T04:45:40;101219.18;;;-5.84;73.96
59417;BME280;45222;52.458;20.914;2023-03-29T04:49:26;101219.10;;;-5.75;74.24
59417;BME280;45222;52.458;20.914;2023-03-29T04:53:12;101217.23;;;-5.68;74.14
59417;BME280;45222;52.458;20.914;2023-03-29T04:56:57;101220.44;;;-5.60;74.04
59417;BME280;45222;52.458;20.914;2023-03-29T05:00:42;101227.80;;;-5.57;74.43
59417;BME280;45222;52.458;20.914;2023-03-29T05:04:29;101227.64;;;-5.57;74.31
59417;BME280;45222;52.458;20.914;2023-03-29T05:08:14;101227.81;;;-5.57;74.42
59417;BME280;45222;52.458;20.914;2023-03-29T05:11:59;101233.45;;;-5.54;74.59
59417;BME280;45222;52.458;20.914;2023-03-29T05:15:44;101228.69;;;-5.51;74.63
59417;BME280;45222;52.458;20.914;2023-03-29T05:19:30;101228.41;;;-5.48;74.78
59417;BME280;45222;52.458;20.914;2023-03-29T05:23:15;101226.47;;;-5.44;75.17
59417;BME280;45222;52.458;20.914;2023-03-29T05:27:00;101231.19;;;-5.37;75.30
59417;BME280;45222;52.458;20.914;2023-03-29T05:30:46;101231.02;;;-5.25;75.38
59417;BME280;45222;52.458;20.914;2023-03-29T05:34:31;101222.98;;;-5.10;75.07
59417;BME280;45222;52.458;20.914;2023-03-29T05:38:17;101224.92;;;-4.90;75.12
59417;BME280;45222;52.458;20.914;2023-03-29T05:42:02;101228.78;;;-4.57;75.37
59417;BME280;45222;52.458;20.914;2023-03-29T05:45:48;101228.75;;;-4.25;75.44
59417;BME280;45222;52.458;20.914;2023-03-29T05:49:33;101225.77;;;-3.92;75.73
59417;BME280;45222;52.458;20.914;2023-03-29T05:53:24;101228.26;;;-3.60;75.56
59417;BME280;45222;52.458;20.914;2023-03-29T05:57:10;101228.98;;;-3.35;75.64
59417;BME280;45222;52.458;20.914;2023-03-29T06:00:56;101226.85;;;-3.14;75.06
59417;BME280;45222;52.458;20.914;2023-03-29T06:04:42;101223.95;;;-2.94;74.76
59417;BME280;45222;52.458;20.914;2023-03-29T06:08:28;101220.25;;;-2.79;74.92
59417;BME280;45222;52.458;20.914;2023-03-29T06:12:14;101217.23;;;-2.63;74.71
59417;BME280;45222;52.458;20.914;2023-03-29T06:16:00;101218.39;;;-2.48;74.37
59417;BME280;45222;52.458;20.914;2023-03-29T06:19:45;101217.33;;;-2.30;73.91
59417;BME280;45222;52.458;20.914;2023-03-29T06:23:30;101224.98;;;-2.10;73.92
59417;BME280;45222;52.458;20.914;2023-03-29T06:27:16;101223.13;;;-1.86;73.87
59417;BME280;45222;52.458;20.914;2023-03-29T06:31:02;101227.48;;;-1.64;73.67
59417;BME280;45222;52.458;20.914;2023-03-29T06:34:47;101232.49;;;-1.44;73.28
59417;BME280;45222;52.458;20.914;2023-03-29T06:38:33;101225.25;;;-1.25;72.76
59417;BME280;45222;52.458;20.914;2023-03-29T06:42:19;101222.45;;;-1.13;72.14
59417;BME280;45222;52.458;20.914;2023-03-29T06:46:05;101223.70;;;-0.97;72.25
59417;BME280;45222;52.458;20.914;2023-03-29T06:49:55;101229.55;;;-0.76;72.30
59417;BME280;45222;52.458;20.914;2023-03-29T06:53:41;101226.63;;;-0.56;72.18
59417;BME280;45222;52.458;20.914;2023-03-29T06:57:26;101231.20;;;-0.37;71.55
59417;BME280;45222;52.458;20.914;2023-03-29T07:01:12;101230.84;;;-0.20;71.23
59417;BME280;45222;52.458;20.914;2023-03-29T07:04:57;101230.44;;;-0.08;70.51
59417;BME280;45222;52.458;20.914;2023-03-29T07:08:42;101229.11;;;0.01;70.48
59417;BME280;45222;52.458;20.914;2023-03-29T07:12:28;101229.19;;;0.10;70.26
59417;BME280;45222;52.458;20.914;2023-03-29T07:16:14;101230.66;;;0.17;69.92
59417;BME280;45222;52.458;20.914;2023-03-29T07:20:00;101228.31;;;0.33;69.88
59417;BME280;45222;52.458;20.914;2023-03-29T07:23:46;101232.12;;;0.51;69.76
59417;BME280;45222;52.458;20.914;2023-03-29T07:27:31;101232.20;;;0.63;69.05
59417;BME280;45222;52.458;20.914;2023-03-29T07:31:16;101233.34;;;0.79;68.86
59417;BME280;45222;52.458;20.914;2023-03-29T07:35:02;101231.30;;;0.91;68.51
59417;BME280;45222;52.458;20.914;2023-03-29T07:38:48;101229.77;;;1.00;67.84
59417;BME280;45222;52.458;20.914;2023-03-29T07:42:34;101228.92;;;1.07;67.71
59417;BME280;45222;52.458;20.914;2023-03-29T07:46:20;101230.01;;;1.15;66.69
59417;BME280;45222;52.458;20.914;2023-03-29T07:50:07;101226.37;;;1.26;66.93
59417;BME280;45222;52.458;20.914;2023-03-29T07:53:53;101223.95;;;1.37;66.89
59417;BME280;45222;52.458;20.914;2023-03-29T07:57:38;101222.23;;;1.50;66.49
59417;BME280;45222;52.458;20.914;2023-03-29T08:01:25;101227.20;;;1.67;66.00
59417;BME280;45222;52.458;20.914;2023-03-29T08:05:12;101226.52;;;1.79;65.13
59417;BME280;45222;52.458;20.914;2023-03-29T08:08:57;101223.53;;;1.87;63.72
59417;BME280;45222;52.458;20.914;2023-03-29T08:12:46;101221.80;;;1.96;64.09
59417;BME280;45222;52.458;20.914;2023-03-29T08:16:35;101223.73;;;2.11;64.08
59417;BME280;45222;52.458;20.914;2023-03-29T08:20:20;101217.59;;;2.24;63.39
59417;BME280;45222;52.458;20.914;2023-03-29T08:24:06;101213.02;;;2.32;63.40
59417;BME280;45222;52.458;20.914;2023-03-29T08:27:51;101201.77;;;2.47;62.51
59417;BME280;45222;52.458;20.914;2023-03-29T08:31:37;101201.05;;;2.55;61.17
59417;BME280;45222;52.458;20.914;2023-03-29T08:35:22;101201.20;;;2.62;61.11
59417;BME280;45222;52.458;20.914;2023-03-29T08:39:08;101195.38;;;2.73;60.99
59417;BME280;45222;52.458;20.914;2023-03-29T08:43:14;101191.48;;;2.83;59.86
59417;BME280;45222;52.458;20.914;2023-03-29T08:47:08;101192.48;;;2.98;59.96
59417;BME280;45222;52.458;20.914;2023-03-29T08:50:59;101181.86;;;3.14;57.14
59417;BME280;45222;52.458;20.914;2023-03-29T08:54:47;101188.29;;;3.29;56.23
59417;BME280;45222;52.458;20.914;2023-03-29T08:58:35;101184.23;;;3.34;55.83
59417;BME280;45222;52.458;20.914;2023-03-29T09:02:23;101185.52;;;3.23;55.53
59417;BME280;45222;52.458;20.914;2023-03-29T09:06:11;101185.48;;;3.31;54.28
59417;BME280;45222;52.458;20.914;2023-03-29T09:09:57;101187.36;;;3.39;52.23
59417;BME280;45222;52.458;20.914;2023-03-29T09:13:49;101183.69;;;3.37;50.36
59417;BME280;45222;52.458;20.914;2023-03-29T09:17:42;101174.86;;;3.44;51.12
59417;BME280;45222;52.458;20.914;2023-03-29T09:21:37;101175.48;;;3.56;51.76
59417;BME280;45222;52.458;20.914;2023-03-29T09:25:26;101174.16;;;3.69;51.17
59417;BME280;45222;52.458;20.914;2023-03-29T09:29:26;101174.09;;;3.78;49.61
59417;BME280;45222;52.458;20.914;2023-03-29T09:33:23;101173.66;;;3.90;48.03
59417;BME280;45222;52.458;20.914;2023-03-29T09:37:12;101169.52;;;4.01;48.49
59417;BME280;45222;52.458;20.914;2023-03-29T09:41:11;101158.99;;;4.16;48.49
59417;BME280;45222;52.458;20.914;2023-03-29T09:45:04;101156.77;;;4.28;47.47
59417;BME280;45222;52.458;20.914;2023-03-29T09:48:53;101153.73;;;4.32;45.18
59417;BME280;45222;52.458;20.914;2023-03-29T09:52:38;101150.02;;;4.35;43.52
59417;BME280;45222;52.458;20.914;2023-03-29T09:56:24;101147.52;;;4.38;43.10
59417;BME280;45222;52.458;20.914;2023-03-29T10:00:12;101147.23;;;4.47;42.98
59417;BME280;45222;52.458;20.914;2023-03-29T10:03:58;101146.23;;;4.59;43.17
59417;BME280;45222;52.458;20.914;2023-03-29T10:07:47;101142.60;;;4.68;42.61
59417;BME280;45222;52.458;20.914;2023-03-29T10:11:34;101144.08;;;4.77;41.55
59417;BME280;45222;52.458;20.914;2023-03-29T10:15:20;101140.84;;;4.84;40.69
59417;BME280;45222;52.458;20.914;2023-03-29T10:19:19;101142.14;;;4.91;41.00
59417;BME280;45222;52.458;20.914;2023-03-29T10:23:07;101143.45;;;5.00;39.59
59417;BME280;45222;52.458;20.914;2023-03-29T10:26:56;101146.15;;;5.09;38.98
59417;BME280;45222;52.458;20.914;2023-03-29T10:30:41;101144.98;;;5.17;38.75
59417;BME280;45222;52.458;20.914;2023-03-29T10:34:29;101139.98;;;5.21;37.98
59417;BME280;45222;52.458;20.914;2023-03-29T10:38:16;101135.54;;;5.24;37.07
59417;BME280;45222;52.458;20.914;2023-03-29T10:42:04;101136.45;;;5.34;37.51
59417;BME280;45222;52.458;20.914;2023-03-29T10:45:54;101133.55;;;5.52;37.16
59417;BME280;45222;52.458;20.914;2023-03-29T10:49:44;101130.45;;;5.68;36.58
59417;BME280;45222;52.458;20.914;2023-03-29T10:53:32;101132.45;;;5.76;36.38
59417;BME280;45222;52.458;20.914;2023-03-29T10:57:25;101127.36;;;5.85;36.50
59417;BME280;45222;52.458;20.914;2023-03-29T11:01:18;101125.68;;;5.91;36.48
59417;BME280;45222;52.458;20.914;2023-03-29T11:05:20;101129.86;;;5.95;36.57
59417;BME280;45222;52.458;20.914;2023-03-29T11:09:17;101121.05;;;6.05;37.55
59417;BME280;45222;52.458;20.914;2023-03-29T11:13:12;101115.50;;;6.20;37.76
59417;BME280;45222;52.458;20.914;2023-03-29T11:17:10;101103.29;;;6.22;37.01
59417;BME280;45222;52.458;20.914;2023-03-29T11:21:07;101106.55;;;6.27;36.46
59417;BME280;45222;52.458;20.914;2023-03-29T11:25:14;101103.99;;;6.31;36.75
59417;BME280;45222;52.458;20.914;2023-03-29T11:29:09;101100.70;;;6.46;36.92
59417;BME280;45222;52.458;20.914;2023-03-29T11:33:06;101093.40;;;6.49;36.66
59417;BME280;45222;52.458;20.914;2023-03-29T11:36:58;101094.26;;;6.50;33.80
59417;BME280;45222;52.458;20.914;2023-03-29T11:40:55;101090.88;;;6.42;34.50
59417;BME280;45222;52.458;20.914;2023-03-29T11:44:43;101082.17;;;6.53;35.63
59417;BME280;45222;52.458;20.914;2023-03-29T11:48:34;101076.04;;;6.68;36.56
59417;BME280;45222;52.458;20.914;2023-03-29T11:52:24;101072.52;;;6.92;36.46
59417;BME280;45222;52.458;20.914;2023-03-29T11:56:16;101074.56;;;7.12;36.55
59417;BME280;45222;52.458;20.914;2023-03-29T12:00:08;101067.36;;;7.24;35.45
59417;BME280;45222;52.458;20.914;2023-03-29T12:03:58;101060.54;;;7.37;35.48
59417;BME280;45222;52.458;20.914;2023-03-29T12:07:51;101059.59;;;7.47;35.09
59417;BME280;45222;52.458;20.914;2023-03-29T12:11:39;101054.42;;;7.55;35.06
59417;BME280;45222;52.458;20.914;2023-03-29T12:15:31;101053.58;;;7.68;33.58
59417;BME280;45222;52.458;20.914;2023-03-29T12:19:20;101051.95;;;7.69;32.83
59417;BME280;45222;52.458;20.914;2023-03-29T12:23:07;101044.38;;;7.82;33.63
59417;BME280;45222;52.458;20.914;2023-03-29T12:27:04;101037.16;;;7.93;32.52
59417;BME280;45222;52.458;20.914;2023-03-29T12:31:01;101037.31;;;8.14;33.64
59417;BME280;45222;52.458;20.914;2023-03-29T12:34:59;101032.39;;;8.25;32.20
59417;BME280;45222;52.458;20.914;2023-03-29T12:38:51;101031.14;;;8.31;31.78
59417;BME280;45222;52.458;20.914;2023-03-29T12:42:44;101032.83;;;8.48;31.72
59417;BME280;45222;52.458;20.914;2023-03-29T12:46:32;101030.05;;;8.58;31.26
59417;BME280;45222;52.458;20.914;2023-03-29T12:50:32;101029.31;;;8.71;31.43
59417;BME280;45222;52.458;20.914;2023-03-29T12:54:20;101025.58;;;8.78;30.68
59417;BME280;45222;52.458;20.914;2023-03-29T12:58:20;101020.27;;;8.77;30.26
59417;BME280;45222;52.458;20.914;2023-03-29T13:06:29;101009.78;;;8.84;30.50
59417;BME280;45222;52.458;20.914;2023-03-29T13:10:34;101011.62;;;8.93;30.56
59417;BME280;45222;52.458;20.914;2023-03-29T13:14:22;101008.33;;;9.02;30.04
59417;BME280;45222;52.458;20.914;2023-03-29T13:18:20;101010.96;;;9.03;29.72
59417;BME280;45222;52.458;20.914;2023-03-29T13:22:18;101007.08;;;9.13;29.84
59417;BME280;45222;52.458;20.914;2023-03-29T13:26:18;101001.52;;;9.26;28.69
59417;BME280;45222;52.458;20.914;2023-03-29T13:30:19;100996.73;;;9.37;29.14
59417;BME280;45222;52.458;20.914;2023-03-29T13:34:19;100992.86;;;9.52;28.86
59417;BME280;45222;52.458;20.914;2023-03-29T13:38:17;100985.48;;;9.64;28.83
59417;BME280;45222;52.458;20.914;2023-03-29T13:42:17;100980.04;;;9.79;29.23
59417;BME280;45222;52.458;20.914;2023-03-29T13:46:19;100973.82;;;9.68;26.66
59417;BME280;45222;52.458;20.914;2023-03-29T13:50:13;100972.08;;;9.52;27.05
59417;BME280;45222;52.458;20.914;2023-03-29T13:54:09;100964.81;;;9.62;27.44
59417;BME280;45222;52.458;20.914;2023-03-29T13:57:59;100965.49;;;9.73;28.29
59417;BME280;45222;52.458;20.914;2023-03-29T14:01:50;100963.19;;;9.92;28.66
59417;BME280;45222;52.458;20.914;2023-03-29T14:05:40;100956.10;;;9.87;27.72
59417;BME280;45222;52.458;20.914;2023-03-29T14:09:29;100957.26;;;9.89;28.10
59417;BME280;45222;52.458;20.914;2023-03-29T14:13:17;100957.74;;;9.96;28.46
59417;BME280;45222;52.458;20.914;2023-03-29T14:17:04;100954.56;;;9.96;27.38
59417;BME280;45222;52.458;20.914;2023-03-29T14:20:51;100954.96;;;10.04;28.47
59417;BME280;45222;52.458;20.914;2023-03-29T14:24:43;100950.73;;;10.17;28.89
59417;BME280;45222;52.458;20.914;2023-03-29T14:28:32;100947.20;;;10.40;28.95
59417;BME280;45222;52.458;20.914;2023-03-29T14:32:25;100942.17;;;10.46;28.57
59417;BME280;45222;52.458;20.914;2023-03-29T14:36:15;100946.40;;;10.43;27.92
59417;BME280;45222;52.458;20.914;2023-03-29T14:40:01;100939.36;;;10.41;27.94
59417;BME280;45222;52.458;20.914;2023-03-29T14:43:52;100943.04;;;10.42;28.99
59417;BME280;45222;52.458;20.914;2023-03-29T14:47:38;100939.11;;;10.48;29.13
59417;BME280;45222;52.458;20.914;2023-03-29T14:51:24;100934.17;;;10.56;29.00
59417;BME280;45222;52.458;20.914;2023-03-29T14:55:12;100935.54;;;10.53;28.90
59417;BME280;45222;52.458;20.914;2023-03-29T14:59:00;100936.88;;;10.51;28.51
59417;BME280;45222;52.458;20.914;2023-03-29T15:02:52;100926.15;;;10.47;29.03
59417;BME280;45222;52.458;20.914;2023-03-29T15:06:38;100924.89;;;10.52;28.30
59417;BME280;45222;52.458;20.914;2023-03-29T15:10:29;100917.80;;;10.37;28.52
59417;BME280;45222;52.458;20.914;2023-03-29T15:14:16;100919.30;;;10.26;28.37
59417;BME280;45222;52.458;20.914;2023-03-29T15:18:04;100919.81;;;9.98;28.30
59417;BME280;45222;52.458;20.914;2023-03-29T15:21:50;100921.02;;;9.75;28.90
59417;BME280;45222;52.458;20.914;2023-03-29T15:25:38;100918.61;;;9.63;28.88
59417;BME280;45222;52.458;20.914;2023-03-29T15:29:41;100923.95;;;9.62;29.28
59417;BME280;45222;52.458;20.914;2023-03-29T15:33:34;100917.50;;;9.63;28.54
59417;BME280;45222;52.458;20.914;2023-03-29T15:37:20;100919.96;;;9.55;28.69
59417;BME280;45222;52.458;20.914;2023-03-29T15:41:06;100911.88;;;9.62;28.19
59417;BME280;45222;52.458;20.914;2023-03-29T15:44:54;100904.26;;;9.57;29.01
59417;BME280;45222;52.458;20.914;2023-03-29T15:48:40;100907.91;;;9.49;28.82
59417;BME280;45222;52.458;20.914;2023-03-29T15:52:26;100905.69;;;9.31;28.76
59417;BME280;45222;52.458;20.914;2023-03-29T15:56:16;100909.95;;;9.05;29.33
59417;BME280;45222;52.458;20.914;2023-03-29T16:00:10;100911.16;;;8.78;29.51
59417;BME280;45222;52.458;20.914;2023-03-29T16:03:56;100912.59;;;8.49;30.21
59417;BME280;45222;52.458;20.914;2023-03-29T16:07:42;100912.08;;;8.31;30.62
59417;BME280;45222;52.458;20.914;2023-03-29T16:11:27;100903.27;;;8.12;31.18
59417;BME280;45222;52.458;20.914;2023-03-29T16:15:16;100898.85;;;7.93;31.21
59417;BME280;45222;52.458;20.914;2023-03-29T16:19:04;100893.58;;;7.73;31.76
59417;BME280;45222;52.458;20.914;2023-03-29T16:22:49;100891.59;;;7.62;31.81
59417;BME280;45222;52.458;20.914;2023-03-29T16:26:35;100889.89;;;7.53;32.15
59417;BME280;45222;52.458;20.914;2023-03-29T16:30:20;100893.93;;;7.41;33.09
59417;BME280;45222;52.458;20.914;2023-03-29T16:34:05;100893.34;;;7.30;33.70
59417;BME280;45222;52.458;20.914;2023-03-29T16:37:51;100890.81;;;7.17;33.66
59417;BME280;45222;52.458;20.914;2023-03-29T16:41:37;100881.50;;;7.01;34.42
59417;BME280;45222;52.458;20.914;2023-03-29T16:45:24;100874.96;;;6.80;36.27
59417;BME280;45222;52.458;20.914;2023-03-29T16:49:12;100876.23;;;6.57;37.64
59417;BME280;45222;52.458;20.914;2023-03-29T16:53:01;100876.39;;;6.35;37.84
59417;BME280;45222;52.458;20.914;2023-03-29T16:56:47;100873.00;;;6.12;38.67
59417;BME280;45222;52.458;20.914;2023-03-29T17:00:32;100869.58;;;5.89;39.32
59417;BME280;45222;52.458;20.914;2023-03-29T17:04:18;100866.01;;;5.65;39.87
59417;BME280;45222;52.458;20.914;2023-03-29T17:08:03;100862.06;;;5.42;40.46
59417;BME280;45222;52.458;20.914;2023-03-29T17:11:49;100867.40;;;5.20;41.26
59417;BME280;45222;52.458;20.914;2023-03-29T17:15:34;100867.42;;;4.99;41.94
59417;BME280;45222;52.458;20.914;2023-03-29T17:19:20;100869.48;;;4.81;42.18
59417;BME280;45222;52.458;20.914;2023-03-29T17:23:06;100874.90;;;4.61;42.79
59417;BME280;45222;52.458;20.914;2023-03-29T17:26:53;100875.93;;;4.41;42.26
59417;BME280;45222;52.458;20.914;2023-03-29T17:30:39;100871.61;;;4.22;42.50
59417;BME280;45222;52.458;20.914;2023-03-29T17:34:25;100877.13;;;4.05;43.35
59417;BME280;45222;52.458;20.914;2023-03-29T17:38:12;100876.98;;;3.89;44.22
59417;BME280;45222;52.458;20.914;2023-03-29T17:41:58;100879.80;;;3.75;44.88
59417;BME280;45222;52.458;20.914;2023-03-29T17:45:44;100880.52;;;3.58;45.24
59417;BME280;45222;52.458;20.914;2023-03-29T17:49:30;100886.17;;;3.41;45.33
59417;BME280;45222;52.458;20.914;2023-03-29T17:53:15;100888.07;;;3.26;45.44
59417;BME280;45222;52.458;20.914;2023-03-29T17:57:01;100888.71;;;3.14;45.66
59417;BME280;45222;52.458;20.914;2023-03-29T18:00:46;100887.74;;;3.05;46.13
59417;BME280;45222;52.458;20.914;2023-03-29T18:04:32;100891.16;;;2.97;46.33
59417;BME280;45222;52.458;20.914;2023-03-29T18:08:18;100888.23;;;2.91;47.19
59417;BME280;45222;52.458;20.914;2023-03-29T18:12:04;100883.35;;;2.85;47.35
59417;BME280;45222;52.458;20.914;2023-03-29T18:15:54;100886.41;;;2.75;48.24
59417;BME280;45222;52.458;20.914;2023-03-29T18:19:39;100888.97;;;2.65;49.12
59417;BME280;45222;52.458;20.914;2023-03-29T18:23:24;100892.86;;;2.59;49.52
59417;BME280;45222;52.458;20.914;2023-03-29T18:27:09;100887.49;;;2.49;50.07
59417;BME280;45222;52.458;20.914;2023-03-29T18:30:56;100883.53;;;2.39;50.24
59417;BME280;45222;52.458;20.914;2023-03-29T18:34:41;100883.05;;;2.29;50.11
59417;BME280;45222;52.458;20.914;2023-03-29T18:38:27;100876.08;;;2.22;50.28
59417;BME280;45222;52.458;20.914;2023-03-29T18:42:13;100879.61;;;2.17;50.63
59417;BME280;45222;52.458;20.914;2023-03-29T18:45:58;100881.58;;;2.11;51.22
59417;BME280;45222;52.458;20.914;2023-03-29T18:49:44;100884.59;;;2.06;51.29
59417;BME280;45222;52.458;20.914;2023-03-29T18:53:31;100888.99;;;2.01;51.52
59417;BME280;45222;52.458;20.914;2023-03-29T18:57:16;100885.17;;;1.95;51.69
59417;BME280;45222;52.458;20.914;2023-03-29T19:01:02;100882.04;;;1.90;51.56
59417;BME280;45222;52.458;20.914;2023-03-29T19:04:48;100880.29;;;1.87;51.59
59417;BME280;45222;52.458;20.914;2023-03-29T19:08:34;100879.24;;;1.85;52.19
59417;BME280;45222;52.458;20.914;2023-03-29T19:12:23;100878.55;;;1.81;53.11
59417;BME280;45222;52.458;20.914;2023-03-29T19:16:08;100881.55;;;1.77;53.14
59417;BME280;45222;52.458;20.914;2023-03-29T19:19:54;100881.41;;;1.74;53.41
59417;BME280;45222;52.458;20.914;2023-03-29T19:23:40;100883.34;;;1.69;54.42
59417;BME280;45222;52.458;20.914;2023-03-29T19:27:25;100885.30;;;1.64;55.43
59417;BME280;45222;52.458;20.914;2023-03-29T19:31:10;100882.52;;;1.58;55.10
59417;BME280;45222;52.458;20.914;2023-03-29T19:34:56;100879.71;;;1.55;55.32
59417;BME280;45222;52.458;20.914;2023-03-29T19:38:42;100873.94;;;1.53;55.74
59417;BME280;45222;52.458;20.914;2023-03-29T19:42:28;100873.42;;;1.51;55.98
59417;BME280;45222;52.458;20.914;2023-03-29T19:46:13;100870.79;;;1.50;56.07
59417;BME280;45222;52.458;20.914;2023-03-29T19:49:59;100868.00;;;1.49;56.34